Time;durP1;ratioP1;P1;durP2;ratioP2;P2;SDS_P1;SDS_P2;PMS_P1;PMS_P2;Temp;Humidity;BMP_temperature;BMP_pressure;BME280_temperature;BME280_humidity;BME280_pressure;Samples;Min_cycle;Max_cycle;Signal;HPM_P1;HPM_P2
2020/12/21 00:00:09;;;;;;;30.90;22.50;;;;;;;-0.73;100.00;96534.31;1023169;28;20035;-65
2020/12/21 00:00:40;;;;;;;30.95;21.88;;;;;;;-0.71;100.00;96540.88;1027284;28;20029;-70
2020/12/21 00:01:10;;;;;;;31.17;22.20;;;;;;;-0.67;100.00;96549.09;1026708;28;20074;-69
2020/12/21 00:01:41;;;;;;;35.80;23.23;;;;;;;-0.66;100.00;96545.53;1026544;28;20114;-71
2020/12/21 00:02:13;;;;;;;28.77;21.60;;;;;;;-0.72;100.00;96547.03;1030784;28;20039;-69
2020/12/21 00:02:47;;;;;;;37.90;24.27;;;;;;;-0.67;100.00;96545.69;1023070;28;20089;-71
2020/12/21 00:03:17;;;;;;;35.70;22.67;;;;;;;-0.67;100.00;96548.28;1026591;28;20034;-70
2020/12/21 00:03:48;;;;;;;35.63;23.40;;;;;;;-0.69;100.00;96534.78;1024391;28;20031;-69
2020/12/21 00:04:18;;;;;;;35.37;23.30;;;;;;;-0.75;100.00;96534.47;1023173;28;20051;-68
2020/12/21 00:04:49;;;;;;;33.43;22.60;;;;;;;-0.88;100.00;96518.78;1021886;29;20035;-70
2020/12/21 00:05:19;;;;;;;29.70;21.10;;;;;;;-0.72;100.00;96536.72;1022655;29;20035;-68
2020/12/21 00:05:50;;;;;;;32.10;22.83;;;;;;;-0.69;100.00;96545.09;1024346;28;20061;-69
2020/12/21 00:06:20;;;;;;;32.67;22.33;;;;;;;-0.67;100.00;96545.69;1022679;29;20097;-69
2020/12/21 00:06:54;;;;;;;33.53;22.93;;;;;;;-0.69;100.00;96537.34;1026579;28;20039;-69
2020/12/21 00:07:25;;;;;;;35.50;23.52;;;;;;;-0.68;100.00;96539.75;1026552;28;20034;-71
2020/12/21 00:07:59;;;;;;;39.93;24.53;;;;;;;-0.66;100.00;96544.75;1025902;28;20396;-70
2020/12/21 00:08:30;;;;;;;31.25;22.20;;;;;;;-0.70;100.00;96541.72;1021506;29;20138;-69
2020/12/21 00:09:00;;;;;;;37.47;24.33;;;;;;;-0.68;100.00;96541.53;1023204;28;20134;-70
2020/12/21 00:09:31;;;;;;;38.33;23.83;;;;;;;-0.68;100.00;96533.78;1022718;29;20370;-69
2020/12/21 00:10:03;;;;;;;33.60;22.30;;;;;;;-0.68;100.00;96538.94;1026084;28;20033;-70
2020/12/21 00:10:33;;;;;;;40.47;24.83;;;;;;;-0.66;100.00;96531.84;1021349;29;20026;-70
2020/12/21 00:11:04;;;;;;;32.63;22.50;;;;;;;-0.66;100.00;96535.22;1019070;29;20182;-71
2020/12/21 00:11:40;;;;;;;33.33;23.43;;;;;;;-0.69;100.00;96529.63;1021003;28;20109;-69
2020/12/21 00:12:10;;;;;;;38.20;24.50;;;;;;;-0.75;100.00;96520.78;1031927;28;20122;-70
2020/12/21 00:12:41;;;;;;;35.07;23.17;;;;;;;-0.77;100.00;96515.84;1026495;28;20035;-68
2020/12/21 00:13:11;;;;;;;38.83;24.83;;;;;;;-0.66;100.00;96530.06;1026253;28;20070;-71
2020/12/21 00:13:44;;;;;;;39.03;25.87;;;;;;;-0.67;100.00;96537.97;1022279;29;20126;-69
2020/12/21 00:14:15;;;;;;;36.38;24.70;;;;;;;-0.81;100.00;96517.13;1023750;28;20402;-70
2020/12/21 00:14:46;;;;;;;36.90;24.33;;;;;;;-0.61;100.00;96539.84;1022573;29;20034;-69
2020/12/21 00:15:16;;;;;;;43.43;27.33;;;;;;;-0.59;100.00;96548.22;1022839;28;20056;-70
2020/12/21 00:15:46;;;;;;;41.10;25.33;;;;;;;-0.57;100.00;96539.38;1030220;28;20053;-67
2020/12/21 00:16:17;;;;;;;29.83;22.07;;;;;;;-0.58;100.00;96542.88;1026675;28;20035;-69
2020/12/21 00:16:49;;;;;;;38.30;24.20;;;;;;;-0.56;100.00;96540.16;1026684;28;20037;-70
2020/12/21 00:17:19;;;;;;;35.20;23.08;;;;;;;-0.55;100.00;96546.91;1022012;28;20027;-70
2020/12/21 00:17:50;;;;;;;33.00;22.97;;;;;;;-0.54;100.00;96549.31;1021498;29;20039;-69
2020/12/21 00:18:20;;;;;;;40.67;26.03;;;;;;;-0.55;100.00;96552.06;1022791;28;20051;-69
2020/12/21 00:18:51;;;;;;;29.47;21.47;;;;;;;-0.54;100.00;96551.06;1029531;28;20030;-72
2020/12/21 00:19:22;;;;;;;34.47;24.30;;;;;;;-0.59;100.00;96541.31;1030254;28;20030;-69
2020/12/21 00:19:52;;;;;;;35.87;23.53;;;;;;;-0.49;100.00;96551.38;1034613;28;20491;-68
2020/12/21 00:20:23;;;;;;;33.50;23.17;;;;;;;-0.56;100.00;96535.81;1030226;28;20057;-69
2020/12/21 00:20:53;;;;;;;34.33;23.43;;;;;;;-0.46;100.00;96552.81;1026141;28;20357;-69
2020/12/21 00:21:24;;;;;;;33.27;23.00;;;;;;;-0.43;100.00;96555.84;1025644;28;20038;-69
2020/12/21 00:21:54;;;;;;;31.73;22.80;;;;;;;-0.46;100.00;96545.88;1026411;28;20440;-69
2020/12/21 00:22:25;;;;;;;39.40;25.50;;;;;;;-0.46;100.00;96545.88;1024570;28;20027;-68
2020/12/21 00:22:55;;;;;;;37.83;24.30;;;;;;;-0.47;100.00;96549.41;1021777;28;20031;-69
2020/12/21 00:23:26;;;;;;;27.80;20.60;;;;;;;-0.39;100.00;96551.16;1026085;28;20054;-68
2020/12/21 00:23:56;;;;;;;27.30;20.07;;;;;;;-0.42;100.00;96552.28;1027391;28;20027;-70
2020/12/21 00:24:27;;;;;;;30.00;20.80;;;;;;;-0.39;100.00;96551.16;1034337;28;20033;-72
2020/12/21 00:24:57;;;;;;;31.17;21.83;;;;;;;-0.44;100.00;96551.66;1030486;28;20026;-67
2020/12/21 00:25:27;;;;;;;35.80;23.03;;;;;;;-0.37;100.00;96562.06;1034357;28;20458;-69
2020/12/21 00:25:58;;;;;;;33.50;22.90;;;;;;;-0.40;100.00;96546.94;1030584;28;20029;-70
2020/12/21 00:26:29;;;;;;;36.03;24.73;;;;;;;-0.35;100.00;96553.19;1030561;28;20262;-68
2020/12/21 00:26:59;;;;;;;27.77;20.90;;;;;;;-0.29;100.00;96562.81;1018794;29;20031;-69
2020/12/21 00:27:30;;;;;;;25.63;19.97;;;;;;;-0.33;100.00;96546.09;1020558;29;20042;-68
2020/12/21 00:28:00;;;;;;;26.20;19.63;;;;;;;-0.25;100.00;96558.13;1019820;29;20149;-69
2020/12/21 00:28:31;;;;;;;26.43;20.40;;;;;;;-0.23;100.00;96553.59;1016440;29;20046;-73
2020/12/21 00:29:02;;;;;;;29.37;20.43;;;;;;;-0.23;100.00;96561.34;1018721;29;20059;-71
2020/12/21 00:29:32;;;;;;;28.20;20.73;;;;;;;-0.22;100.00;96556.97;1022686;28;20470;-69
2020/12/21 00:30:04;;;;;;;29.50;20.97;;;;;;;-0.27;100.00;96549.75;1022877;28;20062;-69
2020/12/21 00:30:34;;;;;;;34.03;22.98;;;;;;;-0.21;100.00;96553.41;1018250;29;20027;-70
2020/12/21 00:31:05;;;;;;;31.97;21.60;;;;;;;-0.18;100.00;96558.22;1018186;29;20023;-70
2020/12/21 00:31:35;;;;;;;32.90;22.00;;;;;;;-0.27;100.00;96542.81;1019085;29;20043;-69
2020/12/21 00:32:06;;;;;;;28.37;20.73;;;;;;;-0.19;100.00;96551.47;1022825;28;20102;-68
2020/12/21 00:32:36;;;;;;;31.83;22.23;;;;;;;-0.29;100.00;96549.94;1022148;28;20533;-67
2020/12/21 00:33:07;;;;;;;31.42;21.00;;;;;;;-0.24;100.00;96550.19;1029420;28;20025;-70
2020/12/21 00:33:37;;;;;;;29.17;21.93;;;;;;;-0.23;100.00;96551.00;1027617;28;20126;-69
2020/12/21 00:34:08;;;;;;;30.10;22.33;;;;;;;-0.25;100.00;96550.38;1027673;28;20027;-70
2020/12/21 00:34:38;;;;;;;32.47;21.27;;;;;;;-0.25;100.00;96553.75;1022897;28;20068;-69
2020/12/21 00:35:09;;;;;;;32.77;21.43;;;;;;;-0.26;100.00;96554.75;1022935;28;20400;-69
2020/12/21 00:35:42;;;;;;;33.57;23.17;;;;;;;-0.26;100.00;96551.38;1026577;28;20030;-69
2020/12/21 00:36:12;;;;;;;30.33;21.83;;;;;;;-0.26;100.00;96557.31;1030917;28;20523;-70
2020/12/21 00:36:44;;;;;;;33.47;23.03;;;;;;;-0.29;100.00;96547.34;1030827;28;20068;-68
2020/12/21 00:37:14;;;;;;;29.17;20.40;;;;;;;-0.27;100.00;96550.56;1030866;28;20028;-69
2020/12/21 00:37:45;;;;;;;27.70;20.43;;;;;;;-0.29;100.00;96556.88;1026463;28;20416;-70
2020/12/21 00:38:15;;;;;;;28.10;19.50;;;;;;;-0.26;100.00;96556.53;1026797;28;20542;-68
2020/12/21 00:38:46;;;;;;;30.90;21.33;;;;;;;-0.26;100.00;96549.56;1026352;28;20046;-70
2020/12/21 00:39:19;;;;;;;27.07;20.27;;;;;;;-0.35;100.00;96542.88;1026714;28;20035;-68
2020/12/21 00:39:49;;;;;;;29.40;21.65;;;;;;;-0.25;100.00;96558.91;1022982;28;20556;-70
2020/12/21 00:40:20;;;;;;;32.87;22.60;;;;;;;-0.23;100.00;96551.00;1026785;28;20026;-68
2020/12/21 00:40:50;;;;;;;34.30;23.10;;;;;;;-0.31;100.00;96538.19;1022745;28;20027;-70
2020/12/21 00:41:22;;;;;;;29.43;21.33;;;;;;;-0.25;100.00;96555.53;1029709;28;20022;-72
2020/12/21 00:41:52;;;;;;;33.38;23.65;;;;;;;-0.27;100.00;96547.16;1026354;28;20106;-70
2020/12/21 00:42:23;;;;;;;30.80;21.23;;;;;;;-0.24;100.00;96559.72;1027021;28;20034;-68
2020/12/21 00:42:53;;;;;;;34.43;22.93;;;;;;;-0.26;100.00;96551.38;1030547;28;20022;-70
2020/12/21 00:43:24;;;;;;;29.10;21.97;;;;;;;-0.24;100.00;96550.19;1030437;28;20029;-69
2020/12/21 00:43:54;;;;;;;33.03;22.73;;;;;;;-0.29;100.00;96555.09;1031370;28;20467;-68
2020/12/21 00:44:25;;;;;;;38.33;24.83;;;;;;;-0.33;100.00;96545.31;1037244;28;20033;-70
2020/12/21 00:44:55;;;;;;;35.63;23.93;;;;;;;-0.24;100.00;96550.19;1031757;28;20073;-69
2020/12/21 00:45:25;;;;;;;30.03;22.23;;;;;;;-0.22;100.00;96552.59;1034785;28;20134;-69
2020/12/21 00:45:56;;;;;;;29.73;21.10;;;;;;;-0.25;100.00;96550.38;1019346;29;20690;-68
2020/12/21 00:46:27;;;;;;;39.53;24.77;;;;;;;-0.30;100.00;96543.16;1022974;28;20044;-69
2020/12/21 00:46:58;;;;;;;33.17;23.52;;;;;;;-0.32;100.00;96539.16;1025050;28;20055;-72
2020/12/21 00:47:32;;;;;;;30.17;21.67;;;;;;;-0.25;100.00;96553.75;1022916;28;20054;-69
2020/12/21 00:48:02;;;;;;;43.67;26.65;;;;;;;-0.21;100.00;96553.41;1028563;28;20023;-68
2020/12/21 00:48:33;;;;;;;39.50;25.37;;;;;;;-0.20;100.00;96549.84;1023199;28;20032;-69
2020/12/21 00:49:03;;;;;;;34.43;23.53;;;;;;;-0.24;100.00;96547.59;1022993;28;20039;-71
2020/12/21 00:49:34;;;;;;;35.47;23.10;;;;;;;-0.24;100.00;96550.19;1023754;28;20035;-68
2020/12/21 00:50:05;;;;;;;36.30;24.07;;;;;;;-0.27;100.00;96542.81;1021386;28;20039;-70
2020/12/21 00:50:35;;;;;;;36.53;24.00;;;;;;;-0.25;100.00;96548.59;1023497;28;20457;-68
2020/12/21 00:51:06;;;;;;;42.77;25.37;;;;;;;-0.21;100.00;96550.81;1022788;28;20286;-68
2020/12/21 00:51:36;;;;;;;39.20;24.37;;;;;;;-0.29;100.00;96536.22;1026918;28;20464;-68
2020/12/21 00:52:07;;;;;;;38.07;25.03;;;;;;;-0.30;100.00;96545.75;1025781;28;20022;-68
2020/12/21 00:52:38;;;;;;;29.07;22.07;;;;;;;-0.26;100.00;96546.22;1026427;28;20027;-69
2020/12/21 00:53:08;;;;;;;39.47;25.60;;;;;;;-0.24;100.00;96549.38;1021767;29;20043;-70
2020/12/21 00:53:38;;;;;;;35.93;24.00;;;;;;;-0.34;100.00;96538.53;1018757;29;20088;-67
2020/12/21 00:54:09;;;;;;;42.13;26.57;;;;;;;-0.32;100.00;96541.75;1027463;28;20034;-72
2020/12/21 00:54:40;;;;;;;36.40;23.47;;;;;;;-0.25;100.00;96558.91;1027994;28;20058;-68
2020/12/21 00:55:10;;;;;;;32.37;22.73;;;;;;;-0.32;100.00;96542.53;1031196;28;20038;-70
2020/12/21 00:55:40;;;;;;;37.50;24.63;;;;;;;-0.26;100.00;96552.16;1026695;28;20136;-68
2020/12/21 00:56:11;;;;;;;38.33;24.90;;;;;;;-0.24;100.00;96559.72;1026659;28;20042;-71
2020/12/21 00:56:41;;;;;;;35.60;24.07;;;;;;;-0.22;100.00;96554.38;1030263;28;20038;-70
2020/12/21 00:57:12;;;;;;;31.17;21.57;;;;;;;-0.31;100.00;96549.28;1034280;28;20029;-69
2020/12/21 00:57:42;;;;;;;37.13;23.63;;;;;;;-0.29;100.00;96557.66;1026662;28;20405;-68
2020/12/21 00:58:13;;;;;;;44.73;26.90;;;;;;;-0.36;100.00;96536.13;1026128;28;20050;-70
2020/12/21 00:58:45;;;;;;;31.80;22.73;;;;;;;-0.23;100.00;96561.34;1026853;28;20560;-69
2020/12/21 00:59:15;;;;;;;30.38;21.13;;;;;;;-0.25;100.00;96561.50;1027014;28;20121;-69
2020/12/21 00:59:45;;;;;;;33.83;23.33;;;;;;;-0.28;100.00;96558.47;1031329;28;20038;-70
2020/12/21 01:00:16;;;;;;;34.70;22.77;;;;;;;-0.24;100.00;96565.66;1026368;28;20497;-71
2020/12/21 01:00:47;;;;;;;40.07;25.03;;;;;;;-0.21;100.00;96563.72;1020639;28;20027;-68
2020/12/21 01:01:20;;;;;;;33.10;22.80;;;;;;;-0.23;100.00;96558.75;1018274;29;20449;-70
2020/12/21 01:01:50;;;;;;;35.28;22.80;;;;;;;-0.21;100.00;96564.50;1019001;28;20115;-68
2020/12/21 01:02:21;;;;;;;35.50;23.63;;;;;;;-0.19;100.00;96569.53;1019123;28;20445;-68
2020/12/21 01:02:51;;;;;;;34.63;23.63;;;;;;;-0.26;100.00;96552.16;1022847;29;20024;-68
2020/12/21 01:03:21;;;;;;;38.63;24.70;;;;;;;-0.21;100.00;96558.56;1022731;28;20037;-68
2020/12/21 01:03:52;;;;;;;30.30;21.67;;;;;;;-0.19;100.00;96561.78;1022641;28;20065;-70
2020/12/21 01:04:24;;;;;;;30.80;21.73;;;;;;;-0.24;100.00;96560.50;1022716;28;20035;-70
2020/12/21 01:04:55;;;;;;;30.08;21.95;;;;;;;-0.24;100.00;96557.94;1022781;29;20271;-69
2020/12/21 01:05:25;;;;;;;38.53;24.83;;;;;;;-0.30;100.00;96545.75;1021410;29;20047;-70
2020/12/21 01:05:56;;;;;;;36.60;23.37;;;;;;;-0.21;100.00;96571.47;1021314;28;20024;-69
2020/12/21 01:06:26;;;;;;;38.20;23.70;;;;;;;-0.20;100.00;96571.31;1022704;28;20075;-70
2020/12/21 01:06:56;;;;;;;34.00;22.97;;;;;;;-0.22;100.00;96567.28;1026751;28;20427;-68
2020/12/21 01:07:27;;;;;;;34.27;23.03;;;;;;;-0.21;100.00;96563.72;1030375;28;20045;-69
2020/12/21 01:07:57;;;;;;;34.67;23.57;;;;;;;-0.20;100.00;96566.13;1034521;28;20034;-69
2020/12/21 01:08:28;;;;;;;38.33;24.63;;;;;;;-0.20;100.00;96565.31;1034744;28;20053;-70
2020/12/21 01:08:58;;;;;;;40.77;25.97;;;;;;;-0.17;100.00;96575.28;1034759;28;20041;-68
2020/12/21 01:09:29;;;;;;;34.77;24.43;;;;;;;-0.19;100.00;96564.34;1031935;28;20046;-68
2020/12/21 01:09:59;;;;;;;43.73;26.10;;;;;;;-0.19;100.00;96569.53;1034514;28;20037;-70
2020/12/21 01:10:30;;;;;;;32.10;22.13;;;;;;;-0.25;100.00;96560.69;1031938;28;20052;-70
2020/12/21 01:11:00;;;;;;;35.87;23.80;;;;;;;-0.21;100.00;96563.72;1032750;28;20562;-70
2020/12/21 01:11:31;;;;;;;39.27;24.37;;;;;;;-0.36;100.00;96549.03;1031314;28;20018;-69
2020/12/21 01:12:01;;;;;;;36.60;23.23;;;;;;;-0.28;100.00;96564.41;1026455;28;20034;-69
2020/12/21 01:12:31;;;;;;;34.43;24.17;;;;;;;-0.19;100.00;96572.09;1022227;28;20110;-70
2020/12/21 01:13:02;;;;;;;38.43;24.77;;;;;;;-0.22;100.00;96562.94;1018848;28;20387;-70
2020/12/21 01:13:32;;;;;;;33.70;23.50;;;;;;;-0.15;100.00;96568.19;1018657;29;20032;-68
2020/12/21 01:14:03;;;;;;;35.30;23.67;;;;;;;-0.15;100.00;96565.59;1022612;28;20130;-71
2020/12/21 01:14:33;;;;;;;35.77;23.73;;;;;;;-0.18;100.00;96560.78;1023937;28;20031;-70
2020/12/21 01:15:04;;;;;;;39.53;25.00;;;;;;;-0.14;100.00;96564.63;1026727;28;20034;-68
2020/12/21 01:15:34;;;;;;;28.40;20.63;;;;;;;-0.15;100.00;96575.94;1030543;28;20030;-70
2020/12/21 01:16:05;;;;;;;33.27;21.83;;;;;;;-0.17;100.00;96570.13;1028361;28;20027;-68
2020/12/21 01:16:35;;;;;;;30.00;22.00;;;;;;;-0.16;100.00;96569.16;1021554;29;20039;-68
2020/12/21 01:17:06;;;;;;;38.00;23.93;;;;;;;-0.16;100.00;96569.97;1014686;29;20083;-69
2020/12/21 01:17:36;;;;;;;29.93;21.43;;;;;;;-0.15;100.00;96568.19;1019646;29;20039;-69
2020/12/21 01:18:07;;;;;;;28.90;21.10;;;;;;;-0.14;100.00;96572.38;1026834;28;20041;-69
2020/12/21 01:18:37;;;;;;;32.27;22.77;;;;;;;-0.14;100.00;96570.56;1028867;28;20048;-70
2020/12/21 01:19:08;;;;;;;35.17;24.20;;;;;;;-0.17;100.00;96564.97;1026764;28;20069;-68
2020/12/21 01:19:39;;;;;;;36.80;24.03;;;;;;;-0.15;100.00;96565.59;1031887;28;20037;-71
2020/12/21 01:20:12;;;;;;;30.00;21.53;;;;;;;-0.12;100.00;96568.63;1030738;28;20428;-70
2020/12/21 01:20:43;;;;;;;31.42;21.65;;;;;;;-0.11;100.00;96574.59;1030281;28;20029;-70
2020/12/21 01:21:24;;;;;;;33.40;22.33;;;;;;;-0.18;100.00;96560.78;1029345;28;20026;-68
2020/12/21 01:21:56;;;;;;;35.00;23.10;;;;;;;-0.10;100.00;96568.44;1027320;28;21068;-68
2020/12/21 01:22:26;;;;;;;36.15;24.40;;;;;;;-0.09;100.00;96578.59;1026503;28;20031;-68
2020/12/21 01:22:57;;;;;;;27.93;21.30;;;;;;;-0.10;100.00;96579.59;1026397;28;20026;-68
2020/12/21 01:23:27;;;;;;;31.63;23.47;;;;;;;-0.09;100.00;96572.66;1026846;28;20015;-69
2020/12/21 01:23:58;;;;;;;36.27;25.50;;;;;;;-0.05;100.00;96576.47;1029166;28;20396;-70
2020/12/21 01:24:29;;;;;;;26.47;20.50;;;;;;;-0.04;100.00;96578.06;1027623;28;20366;-68
2020/12/21 01:24:59;;;;;;;27.40;21.63;;;;;;;-0.02;100.00;96579.50;1027605;28;20313;-69
2020/12/21 01:25:30;;;;;;;32.97;23.00;;;;;;;0.01;100.00;96583.53;1018707;29;20020;-71
2020/12/21 01:26:00;;;;;;;30.20;21.73;;;;;;;0.01;100.00;96578.38;1018501;29;20322;-68
2020/12/21 01:26:31;;;;;;;30.60;22.00;;;;;;;-0.08;100.00;96562.16;1022398;28;20035;-68
2020/12/21 01:27:01;;;;;;;29.70;22.33;;;;;;;0.01;100.00;96573.22;1019880;28;20793;-69
2020/12/21 01:27:31;;;;;;;27.63;21.83;;;;;;;0.01;100.00;96573.22;1027651;28;20093;-69
2020/12/21 01:28:03;;;;;;;28.90;22.33;;;;;;;-0.05;100.00;96571.31;1026143;28;20027;-70
2020/12/21 01:28:33;;;;;;;30.38;22.83;;;;;;;0.03;100.00;96576.41;1023967;28;20074;-69
2020/12/21 01:29:04;;;;;;;30.80;23.90;;;;;;;0.04;100.00;96577.22;1020233;29;20152;-73
2020/12/21 01:29:34;;;;;;;34.90;26.17;;;;;;;0.06;100.00;96575.25;1020379;28;20027;-67
2020/12/21 01:30:05;;;;;;;32.53;24.17;;;;;;;0.06;100.00;96575.25;1024475;28;20031;-69
2020/12/21 01:30:35;;;;;;;30.23;22.23;;;;;;;-0.02;100.00;96555.50;1023482;29;20019;-69
2020/12/21 01:31:06;;;;;;;28.70;22.37;;;;;;;0.08;100.00;96568.94;1019019;29;20031;-70
2020/12/21 01:31:36;;;;;;;29.03;22.43;;;;;;;0.09;100.00;96575.69;1022563;29;20031;-70
2020/12/21 01:32:07;;;;;;;29.27;22.23;;;;;;;0.05;100.00;96564.13;1021834;28;20278;-71
2020/12/21 01:32:37;;;;;;;26.17;21.42;;;;;;;0.09;100.00;96565.38;1027393;28;20062;-70
2020/12/21 01:33:09;;;;;;;30.20;23.87;;;;;;;0.15;100.00;96575.00;1020862;29;20028;-70
2020/12/21 01:33:39;;;;;;;26.02;21.42;;;;;;;0.09;100.00;96567.97;1027442;28;20038;-69
2020/12/21 01:34:10;;;;;;;26.00;21.03;;;;;;;0.10;100.00;96561.84;1020639;29;20039;-69
2020/12/21 01:34:40;;;;;;;25.17;21.00;;;;;;;0.14;100.00;96567.44;1019556;29;20078;-67
2020/12/21 01:35:11;;;;;;;33.00;24.73;;;;;;;0.19;100.00;96571.09;1021036;29;20035;-70
2020/12/21 01:35:41;;;;;;;30.57;22.77;;;;;;;0.24;100.00;96573.16;1023452;28;20083;-68
2020/12/21 01:36:12;;;;;;;35.87;25.57;;;;;;;0.23;100.00;96576.69;1024862;28;20095;-70
2020/12/21 01:36:43;;;;;;;29.53;22.13;;;;;;;0.18;100.00;96572.06;1023368;29;20429;-69
2020/12/21 01:37:13;;;;;;;34.20;22.60;;;;;;;0.24;100.00;96573.16;1020953;28;20508;-69
2020/12/21 01:37:44;;;;;;;37.90;25.03;;;;;;;0.22;100.00;96575.91;1019613;29;20035;-68
2020/12/21 01:38:14;;;;;;;32.33;23.83;;;;;;;0.19;100.00;96571.09;1025067;28;20035;-69
2020/12/21 01:38:45;;;;;;;39.85;26.42;;;;;;;0.28;100.00;96583.91;1027607;28;20037;-69
2020/12/21 01:39:15;;;;;;;37.83;24.00;;;;;;;0.27;100.00;96577.97;1030847;28;20570;-69
2020/12/21 01:39:48;;;;;;;24.67;19.25;;;;;;;0.19;100.00;96571.09;1031473;28;20030;-69
2020/12/21 01:40:19;;;;;;;33.80;23.45;;;;;;;0.26;100.00;96584.09;1031162;28;20640;-69
2020/12/21 01:40:49;;;;;;;30.50;21.80;;;;;;;0.23;100.00;96580.09;1027648;28;20035;-69
2020/12/21 01:41:20;;;;;;;26.42;20.55;;;;;;;0.31;100.00;96583.56;1018710;29;20109;-67
2020/12/21 01:41:50;;;;;;;25.17;19.33;;;;;;;0.31;100.00;96575.84;1018968;29;20392;-69
2020/12/21 01:42:21;;;;;;;24.08;18.83;;;;;;;0.26;100.00;96570.38;1019210;29;20031;-70
2020/12/21 01:42:52;;;;;;;25.83;20.17;;;;;;;0.34;100.00;96578.84;1023584;29;20063;-68
2020/12/21 01:43:22;;;;;;;28.95;21.23;;;;;;;0.34;100.00;96578.84;1021539;28;20143;-69
2020/12/21 01:43:56;;;;;;;26.15;20.45;;;;;;;0.28;100.00;96563.28;1023634;28;20039;-71
2020/12/21 01:44:26;;;;;;;32.62;21.40;;;;;;;0.35;100.00;96574.50;1026801;28;20023;-70
2020/12/21 01:44:57;;;;;;;36.50;22.50;;;;;;;0.29;100.00;96564.88;1025237;28;20030;-67
2020/12/21 01:45:27;;;;;;;44.22;24.83;;;;;;;0.33;100.00;96568.69;1024997;28;20119;-70
2020/12/21 01:46:06;;;;;;;43.00;25.10;;;;;;;0.31;100.00;96573.25;1023511;29;20027;-68
2020/12/21 01:46:37;;;;;;;40.20;25.70;;;;;;;0.28;100.00;96564.06;1019935;29;20121;-69
2020/12/21 01:47:07;;;;;;;41.97;24.67;;;;;;;0.27;100.00;96562.47;1031680;28;20026;-69
2020/12/21 01:47:38;;;;;;;33.95;22.95;;;;;;;0.21;100.00;96563.19;1024125;28;20196;-68
2020/12/21 01:48:09;;;;;;;42.87;26.23;;;;;;;0.13;100.00;96558.09;1024724;28;20675;-67
2020/12/21 01:48:41;;;;;;;41.38;24.95;;;;;;;0.18;100.00;96558.38;1027302;28;20066;-68
2020/12/21 01:49:12;;;;;;;38.25;24.63;;;;;;;0.17;100.00;96567.09;1019509;29;20813;-68
2020/12/21 01:49:43;;;;;;;44.97;26.50;;;;;;;0.11;100.00;96560.06;1018911;29;20044;-69
2020/12/21 01:50:13;;;;;;;38.03;24.43;;;;;;;0.15;100.00;96574.19;1023303;29;20509;-69
2020/12/21 01:50:44;;;;;;;40.87;24.90;;;;;;;0.15;100.00;96574.19;1028037;28;20184;-68
2020/12/21 01:51:24;;;;;;;41.37;25.20;;;;;;;0.14;100.00;96576.00;1019566;29;20040;-69
2020/12/21 01:51:55;;;;;;;33.70;22.90;;;;;;;0.11;100.00;96573.75;1021266;28;20027;-69
2020/12/21 01:52:25;;;;;;;36.03;24.33;;;;;;;0.14;100.00;96576.00;1027373;28;20027;-68
2020/12/21 01:52:56;;;;;;;40.73;25.40;;;;;;;0.12;100.00;96575.34;1031106;28;20046;-68
2020/12/21 01:53:27;;;;;;;30.10;22.70;;;;;;;0.06;100.00;96563.16;1027136;28;20101;-68
2020/12/21 01:53:57;;;;;;;39.45;26.15;;;;;;;0.06;100.00;96570.09;1031009;28;20030;-68
2020/12/21 01:54:28;;;;;;;38.57;25.03;;;;;;;0.09;100.00;96572.31;1027346;28;20034;-70
2020/12/21 01:54:59;;;;;;;32.93;23.70;;;;;;;0.12;100.00;96583.09;1018979;29;20740;-70
2020/12/21 01:55:29;;;;;;;32.40;23.40;;;;;;;0.08;100.00;96571.53;1025709;28;20023;-68
2020/12/21 01:56:02;;;;;;;33.27;22.13;;;;;;;0.17;100.00;96580.78;1027205;28;20083;-68
2020/12/21 01:56:33;;;;;;;33.33;23.00;;;;;;;0.19;100.00;96583.97;1027485;28;20019;-70
2020/12/21 01:57:03;;;;;;;45.00;27.23;;;;;;;0.21;100.00;96582.03;1023224;28;20035;-69
2020/12/21 01:57:34;;;;;;;48.03;27.50;;;;;;;0.14;100.00;96572.59;1023567;28;20051;-71
2020/12/21 01:58:04;;;;;;;30.10;21.83;;;;;;;0.23;100.00;96585.25;1019298;29;20583;-68
2020/12/21 01:58:35;;;;;;;38.00;25.27;;;;;;;0.23;100.00;96582.69;1019296;28;20024;-69
2020/12/21 01:59:05;;;;;;;33.20;22.07;;;;;;;0.26;100.00;96584.09;1027391;28;20377;-70
2020/12/21 01:59:35;;;;;;;27.70;21.10;;;;;;;0.29;100.00;96590.69;1027515;28;20384;-71
2020/12/21 02:00:06;;;;;;;36.00;24.77;;;;;;;0.23;100.00;96585.25;1031233;28;20034;-69
2020/12/21 02:00:37;;;;;;;38.88;25.10;;;;;;;0.27;100.00;96584.88;1035213;28;20034;-68
2020/12/21 02:01:07;;;;;;;34.17;23.17;;;;;;;0.24;100.00;96583.47;1035540;28;20084;-70
2020/12/21 02:01:38;;;;;;;38.43;25.53;;;;;;;0.26;100.00;96588.44;1030558;28;20022;-68
2020/12/21 02:02:08;;;;;;;38.17;25.00;;;;;;;0.22;100.00;96575.91;1022946;28;20039;-67
2020/12/21 02:02:39;;;;;;;36.63;25.47;;;;;;;0.25;100.00;96577.31;1027304;28;20126;-72
2020/12/21 02:03:09;;;;;;;35.23;24.93;;;;;;;0.29;100.00;96582.94;1030704;28;20519;-70
2020/12/21 02:03:40;;;;;;;36.37;24.70;;;;;;;0.30;100.00;96581.94;1027113;28;20039;-69
2020/12/21 02:04:11;;;;;;;34.20;23.77;;;;;;;0.26;100.00;96578.91;1019167;29;20035;-70
2020/12/21 02:04:41;;;;;;;35.83;24.77;;;;;;;0.27;100.00;96579.72;1019333;29;20027;-68
2020/12/21 02:05:12;;;;;;;38.00;26.00;;;;;;;0.31;100.00;96578.41;1023299;29;20106;-70
2020/12/21 02:05:42;;;;;;;38.80;25.45;;;;;;;0.31;100.00;96583.56;1024843;28;20061;-69
2020/12/21 02:06:13;;;;;;;39.60;25.30;;;;;;;0.32;100.00;96585.97;1028998;28;20428;-68
2020/12/21 02:06:43;;;;;;;42.28;26.90;;;;;;;0.23;100.00;96569.78;1027300;28;20031;-71
2020/12/21 02:07:14;;;;;;;43.00;26.63;;;;;;;0.35;100.00;96582.22;1027396;28;20050;-68
2020/12/21 02:07:44;;;;;;;48.38;28.35;;;;;;;0.36;100.00;96586.41;1026015;28;20034;-66
2020/12/21 02:08:15;;;;;;;42.88;25.40;;;;;;;0.35;100.00;96584.81;1022218;28;20042;-68
2020/12/21 02:08:45;;;;;;;37.95;24.58;;;;;;;0.29;100.00;96575.19;1028950;28;20559;-70
2020/12/21 02:09:16;;;;;;;47.17;28.25;;;;;;;0.30;100.00;96587.09;1031136;28;20129;-69
2020/12/21 02:09:46;;;;;;;35.00;23.50;;;;;;;0.32;100.00;96583.38;1033284;28;20053;-68
2020/12/21 02:10:17;;;;;;;32.92;23.02;;;;;;;0.29;100.00;96580.34;1022834;29;20038;-69
2020/12/21 02:10:47;;;;;;;38.42;23.45;;;;;;;0.35;100.00;96582.22;1023362;29;20030;-69
2020/12/21 02:11:18;;;;;;;35.38;22.10;;;;;;;0.34;100.00;96578.06;1019271;29;20624;-70
2020/12/21 02:11:49;;;;;;;36.53;23.98;;;;;;;0.36;100.00;96589.00;1017728;29;20042;-69
2020/12/21 02:12:19;;;;;;;38.35;24.27;;;;;;;0.34;100.00;96580.63;1019693;28;20513;-68
2020/12/21 02:12:50;;;;;;;38.40;23.52;;;;;;;0.36;100.00;96581.25;1027645;28;20089;-68
2020/12/21 02:13:20;;;;;;;44.92;26.10;;;;;;;0.33;100.00;96587.56;1031058;28;20035;-69
2020/12/21 02:13:51;;;;;;;39.47;25.00;;;;;;;0.26;100.00;96576.34;1029189;28;20042;-70
2020/12/21 02:14:21;;;;;;;33.15;22.50;;;;;;;0.24;100.00;96580.91;1027638;28;20089;-69
2020/12/21 02:14:52;;;;;;;40.00;24.88;;;;;;;0.25;100.00;96579.91;1027301;28;20113;-68
2020/12/21 02:15:22;;;;;;;43.15;25.33;;;;;;;0.25;100.00;96579.13;1023274;28;20050;-69
2020/12/21 02:15:53;;;;;;;35.78;24.77;;;;;;;0.19;100.00;96568.50;1031273;28;20511;-70
2020/12/21 02:16:24;;;;;;;33.80;23.33;;;;;;;0.27;100.00;96580.53;1025376;28;20429;-70
2020/12/21 02:16:54;;;;;;;39.40;25.60;;;;;;;0.26;100.00;96580.69;1027570;28;20027;-71
2020/12/21 02:17:25;;;;;;;38.67;24.75;;;;;;;0.25;100.00;96579.13;1027173;28;20035;-69
2020/12/21 02:17:55;;;;;;;39.70;25.00;;;;;;;0.23;100.00;96577.53;1023332;28;20218;-67
2020/12/21 02:18:26;;;;;;;35.42;23.08;;;;;;;0.23;100.00;96574.94;1023253;28;20042;-69
2020/12/21 02:18:56;;;;;;;40.75;25.75;;;;;;;0.25;100.00;96568.78;1027347;28;20031;-68
2020/12/21 02:19:27;;;;;;;39.53;24.83;;;;;;;0.17;100.00;96561.94;1031275;28;20100;-69
2020/12/21 02:19:57;;;;;;;39.03;24.92;;;;;;;0.24;100.00;96573.16;1031091;28;20507;-69
2020/12/21 02:20:28;;;;;;;46.95;27.60;;;;;;;0.16;100.00;96566.28;1030132;28;20030;-71